Angra Dos Reis, Brazil

10:28 AM BRST on February 08, 2016 (GMT -0200)
Santa Cruz Air Base | | Change Station
CLOSE
Current Station
Airport
Location: Santa Cruz,
Elevation: 10 ft
Nearby Weather Stations

Elev 10 ft 22.93 °S, 43.72 °W | Updated 1 hour ago

Clear
Clear
81 °F
Feels Like 85 °F
N
7
Wind Variable Wind from NE

Today
High -- | Low -- °F
--% Chance of Precip.
Yesterday
High -- | Low -- °F
Precip. -- in
Pressure 30.01 in
Visibility -9999.0 miles
Clouds
Heat Index 85 °F
Dew Point 72 °F
Humidity 74%
Rainfall 0.00 in
Snow Depth Not available.
6:41 AM 7:41 PM
Waning Crescent, 0% visible
METAR SBSC 081100Z 05006KT CAVOK 27/22 Q1016
Pressure 30.01 in
Visibility -9999.0 miles
Clouds
Heat Index 85 °F
Dew Point 72 °F
Humidity 74%
Rainfall 0.00 in
Snow Depth Not available.
6:41 AM 7:41 PM
Waning Crescent, 0% visible
METAR SBSC 081100Z 05006KT CAVOK 27/22 Q1016

10-Day Weather Forecast

No radar image for this location.
×

Almanac

Astronomy

Feb. 08, 2016 Rise Set
Actual Time
Civil Twilight
Nautical Twilight
Astronomical Twilight
Moon
Length of Visible Light
Length of Day
Tomorrow will be .
, % of the Moon is Illuminated

Today's Extremes

Country Highs Country Lows

Community

WunderPhotos

Upload Photos

1,891,426 photos uploaded!

WunderBlog® & News

Nearby

Air Quality

  Air Quality AQ Index Pollutant
Not available.

Snow Depth

Station Depth Elevation

Earthquake Activity

City Distance Mag. Time & Date
Minimum magnitude displayed is 2.5.

Coastal Water Temperatures

Place Temperature

Stations

Nearby Weather Stations

Station Location Temp. Windchill Dew Point Humidity Wind Precip. Elev Updated Type